Time;durP1;ratioP1;P1;durP2;ratioP2;P2;SDS_P1;SDS_P2;PMS_P1;PMS_P2;Temp;Humidity;BMP_temperature;BMP_pressure;BME280_temperature;BME280_humidity;BME280_pressure;Samples;Min_cycle;Max_cycle;Signal;HPM_P1;HPM_P2
2021/12/08 00:00:50;;;;;;;92.22;39.92;;;;;;;;;;715976;194;919933;-64
2021/12/08 00:03:14;;;;;;;80.70;34.20;;;;;;;;;;707887;193;945939;-65
2021/12/08 00:05:40;;;;;;;81.50;34.20;;;;;;;;;;711240;193;919378;-63
2021/12/08 00:08:06;;;;;;;85.07;33.70;;;;;;;;;;712239;196;919047;-64
2021/12/08 00:13:12;;;;;;;67.87;33.80;;;;;;;;;;707866;193;919913;-65
2021/12/08 00:15:39;;;;;;;78.83;34.00;;;;;;;;;;709859;193;920176;-65
2021/12/08 00:18:05;;;;;;;76.63;34.23;;;;;;;;;;715546;194;918701;-65
2021/12/08 00:20:32;;;;;;;85.57;35.10;;;;;;;;;;713972;193;920038;-64
2021/12/08 00:22:56;;;;;;;82.07;35.77;;;;;;;;;;718082;193;933815;-61
2021/12/08 00:25:22;;;;;;;67.93;31.67;;;;;;;;;;716621;193;919312;-65
2021/12/08 00:27:48;;;;;;;75.40;32.57;;;;;;;;;;717984;193;940776;-65
2021/12/08 00:30:15;;;;;;;67.70;30.53;;;;;;;;;;715667;193;938493;-66
2021/12/08 00:32:40;;;;;;;77.07;35.20;;;;;;;;;;714608;193;907788;-65
2021/12/08 00:35:06;;;;;;;73.93;32.60;;;;;;;;;;729087;190;914561;-65
2021/12/08 00:37:32;;;;;;;70.00;32.83;;;;;;;;;;725840;188;920007;-64
2021/12/08 00:39:58;;;;;;;74.10;34.83;;;;;;;;;;724765;189;1014670;-64
2021/12/08 00:42:23;;;;;;;69.63;33.57;;;;;;;;;;730353;189;917814;-65
2021/12/08 00:44:49;;;;;;;73.40;33.30;;;;;;;;;;718892;189;915651;-64
2021/12/08 00:47:15;;;;;;;66.23;32.07;;;;;;;;;;719345;190;912074;-65
2021/12/08 00:49:41;;;;;;;84.73;33.30;;;;;;;;;;724905;189;920784;-65
2021/12/08 00:52:07;;;;;;;77.07;34.07;;;;;;;;;;731578;189;909735;-66
2021/12/08 00:54:33;;;;;;;74.63;32.50;;;;;;;;;;725024;189;918404;-65
2021/12/08 00:56:59;;;;;;;66.77;31.27;;;;;;;;;;721170;192;911075;-65
2021/12/08 00:59:24;;;;;;;71.33;35.33;;;;;;;;;;731109;189;908819;-65
2021/12/08 01:01:50;;;;;;;66.83;31.07;;;;;;;;;;729026;186;918491;-65
2021/12/08 01:04:16;;;;;;;67.47;26.83;;;;;;;;;;729184;190;1018795;-66
2021/12/08 01:06:43;;;;;;;73.70;32.33;;;;;;;;;;730913;189;918905;-65
2021/12/08 01:09:09;;;;;;;73.43;31.00;;;;;;;;;;728410;189;922042;-65
2021/12/08 01:11:34;;;;;;;75.03;31.93;;;;;;;;;;733129;189;925227;-65
2021/12/08 01:14:00;;;;;;;66.87;30.17;;;;;;;;;;730079;189;924349;-64
2021/12/08 01:16:26;;;;;;;83.20;35.27;;;;;;;;;;737555;189;869759;-65
2021/12/08 01:18:52;;;;;;;65.73;31.83;;;;;;;;;;729418;189;1018483;-65
2021/12/08 01:21:18;;;;;;;70.97;32.67;;;;;;;;;;719414;189;920972;-65
2021/12/08 01:23:44;;;;;;;65.33;31.50;;;;;;;;;;729089;189;916659;-65
2021/12/08 01:26:10;;;;;;;60.97;29.57;;;;;;;;;;723704;189;919355;-66
2021/12/08 01:28:35;;;;;;;68.20;34.80;;;;;;;;;;718459;191;915394;-66
2021/12/08 01:31:02;;;;;;;71.00;29.23;;;;;;;;;;723716;190;915398;-66
2021/12/08 01:33:30;;;;;;;63.10;25.77;;;;;;;;;;724898;189;915798;-66
2021/12/08 01:35:53;;;;;;;63.67;29.73;;;;;;;;;;729253;189;913942;-65
2021/12/08 01:38:19;;;;;;;70.03;29.30;;;;;;;;;;729939;190;919412;-66
2021/12/08 01:40:45;;;;;;;70.47;31.50;;;;;;;;;;733443;189;913119;-65
2021/12/08 01:43:23;;;;;;;62.40;29.40;;;;;;;;;;728496;189;916106;-66
2021/12/08 01:48:08;;;;;;;67.10;32.07;;;;;;;;;;738597;189;916395;-65
2021/12/08 01:50:34;;;;;;;60.00;28.33;;;;;;;;;;725538;190;918958;-65
2021/12/08 01:53:00;;;;;;;77.10;32.87;;;;;;;;;;726995;189;916294;-65
2021/12/08 01:55:26;;;;;;;61.83;31.67;;;;;;;;;;738127;189;916308;-65
2021/12/08 01:57:51;;;;;;;58.90;28.23;;;;;;;;;;727708;189;916269;-65
2021/12/08 02:00:17;;;;;;;70.07;30.33;;;;;;;;;;730544;189;1018583;-66
2021/12/08 02:02:43;;;;;;;59.33;27.23;;;;;;;;;;725233;186;920156;-64
2021/12/08 02:05:09;;;;;;;64.57;29.37;;;;;;;;;;731466;190;920775;-65
2021/12/08 02:07:35;;;;;;;67.00;29.10;;;;;;;;;;720743;189;918259;-65
2021/12/08 02:10:01;;;;;;;63.70;30.45;;;;;;;;;;726144;189;916795;-65
2021/12/08 02:12:29;;;;;;;73.63;32.70;;;;;;;;;;727673;189;919959;-66
2021/12/08 02:14:52;;;;;;;60.63;29.17;;;;;;;;;;723469;190;921403;-66
2021/12/08 02:17:18;;;;;;;69.93;31.73;;;;;;;;;;730684;189;920368;-65
2021/12/08 02:19:44;;;;;;;73.47;33.63;;;;;;;;;;735822;190;921002;-65
2021/12/08 02:22:10;;;;;;;66.82;29.55;;;;;;;;;;729255;189;1006717;-66
2021/12/08 02:24:36;;;;;;;62.37;30.50;;;;;;;;;;728267;189;919441;-65
2021/12/08 02:27:02;;;;;;;71.23;32.47;;;;;;;;;;722691;190;918908;-64
2021/12/08 02:29:43;;;;;;;69.22;32.45;;;;;;;;;;733377;189;916257;-65
2021/12/08 02:32:28;;;;;;;79.53;33.47;;;;;;;;;;726805;189;922473;-65
2021/12/08 02:47:29;;;;;;;75.93;33.03;;;;;;;;;;730099;189;917078;-66
2021/12/08 02:49:42;;;;;;;78.37;32.20;;;;;;;;;;718379;190;920038;-66
2021/12/08 02:52:07;;;;;;;70.23;32.73;;;;;;;;;;735757;189;920807;-65
2021/12/08 02:54:34;;;;;;;78.90;32.80;;;;;;;;;;720124;189;921244;-66
2021/12/08 02:57:00;;;;;;;65.67;30.57;;;;;;;;;;720535;189;916918;-66
2021/12/08 02:59:26;;;;;;;74.23;32.50;;;;;;;;;;736857;189;915377;-65
2021/12/08 03:01:52;;;;;;;82.30;32.40;;;;;;;;;;724650;189;919086;-65
2021/12/08 03:04:18;;;;;;;70.07;34.80;;;;;;;;;;725076;190;919446;-65
2021/12/08 03:06:43;;;;;;;78.95;33.22;;;;;;;;;;723024;190;922879;-65
2021/12/08 03:09:09;;;;;;;71.73;31.07;;;;;;;;;;726173;192;918852;-64
2021/12/08 03:11:35;;;;;;;73.63;31.53;;;;;;;;;;731183;189;920972;-64
2021/12/08 03:14:16;;;;;;;71.13;32.00;;;;;;;;;;733087;189;919152;-65
2021/12/08 03:16:42;;;;;;;66.37;28.67;;;;;;;;;;727959;189;920090;-64
2021/12/08 03:19:07;;;;;;;70.07;31.75;;;;;;;;;;721997;190;918246;-66
2021/12/08 03:21:34;;;;;;;79.70;33.20;;;;;;;;;;729707;189;919068;-65
2021/12/08 03:26:33;;;;;;;65.43;26.50;;;;;;;;;;734418;189;920309;-64
2021/12/08 03:29:03;;;;;;;88.73;33.33;;;;;;;;;;719694;192;920516;-66
2021/12/08 03:31:29;;;;;;;79.20;32.13;;;;;;;;;;729085;189;917859;-65
2021/12/08 03:33:50;;;;;;;65.07;30.90;;;;;;;;;;735595;189;919432;-66
2021/12/08 03:36:15;;;;;;;72.93;30.43;;;;;;;;;;732584;189;916780;-61
2021/12/08 03:38:44;;;;;;;69.55;33.28;;;;;;;;;;735824;189;921076;-65
2021/12/08 03:41:07;;;;;;;66.53;31.53;;;;;;;;;;737485;189;919015;-64
2021/12/08 03:43:32;;;;;;;65.80;32.77;;;;;;;;;;723786;189;918755;-65
2021/12/08 03:45:58;;;;;;;88.43;38.50;;;;;;;;;;735804;189;919479;-65
2021/12/08 03:48:25;;;;;;;69.40;34.37;;;;;;;;;;719678;193;921253;-66
2021/12/08 03:50:50;;;;;;;70.60;35.07;;;;;;;;;;722270;193;919216;-65
2021/12/08 03:53:16;;;;;;;75.53;30.17;;;;;;;;;;734921;189;920260;-65
2021/12/08 03:55:41;;;;;;;77.00;35.97;;;;;;;;;;730954;189;919231;-65
2021/12/08 03:58:07;;;;;;;80.80;35.10;;;;;;;;;;730805;189;919995;-65
2021/12/08 04:00:33;;;;;;;74.47;31.60;;;;;;;;;;738198;189;918817;-65
2021/12/08 04:02:59;;;;;;;74.37;33.97;;;;;;;;;;733313;189;920407;-65
2021/12/08 04:05:40;;;;;;;79.30;34.80;;;;;;;;;;731734;189;918244;-65
2021/12/08 04:07:52;;;;;;;70.03;34.10;;;;;;;;;;729498;187;910933;-64
2021/12/08 04:10:19;;;;;;;80.20;34.20;;;;;;;;;;725890;189;918865;-66
2021/12/08 04:12:42;;;;;;;62.93;27.47;;;;;;;;;;723448;189;1034104;-64
2021/12/08 04:15:08;;;;;;;88.63;37.20;;;;;;;;;;726138;189;920199;-64
2021/12/08 04:17:35;;;;;;;90.50;36.87;;;;;;;;;;726152;189;918955;-65
2021/12/08 04:20:01;;;;;;;83.77;34.10;;;;;;;;;;722407;189;1022271;-64
2021/12/08 04:22:27;;;;;;;101.40;46.10;;;;;;;;;;725379;189;918774;-64
2021/12/08 04:24:53;;;;;;;205.27;136.87;;;;;;;;;;734095;189;916658;-65
2021/12/08 04:27:20;;;;;;;87.50;42.03;;;;;;;;;;722625;189;920258;-64
2021/12/08 04:29:46;;;;;;;87.93;39.97;;;;;;;;;;724197;189;918806;-65
2021/12/08 04:32:14;;;;;;;74.33;34.40;;;;;;;;;;727153;189;961942;-65
2021/12/08 04:34:38;;;;;;;62.63;27.33;;;;;;;;;;724155;189;915394;-66
2021/12/08 04:37:03;;;;;;;75.17;36.17;;;;;;;;;;721641;189;919698;-65
2021/12/08 04:39:34;;;;;;;68.75;30.70;;;;;;;;;;729974;189;914930;-64
2021/12/08 04:42:03;;;;;;;76.67;33.80;;;;;;;;;;725785;189;920839;-65
2021/12/08 04:47:23;;;;;;;73.83;35.43;;;;;;;;;;726918;189;979166;-67
2021/12/08 04:50:18;;;;;;;87.75;37.72;;;;;;;;;;722881;189;918553;-66
2021/12/08 04:52:29;;;;;;;98.23;41.57;;;;;;;;;;729625;189;919126;-64
2021/12/08 05:02:39;;;;;;;89.50;42.20;;;;;;;;;;724891;189;922152;-65
2021/12/08 05:09:51;;;;;;;84.50;40.63;;;;;;;;;;715916;193;920102;-66
2021/12/08 05:12:17;;;;;;;84.60;38.40;;;;;;;;;;732160;189;918643;-65
2021/12/08 05:14:45;;;;;;;88.57;41.90;;;;;;;;;;724789;189;919332;-66
2021/12/08 05:17:11;;;;;;;106.90;43.77;;;;;;;;;;734037;189;631635;-66
2021/12/08 05:19:37;;;;;;;92.63;41.70;;;;;;;;;;725069;189;874359;-66
2021/12/08 05:22:03;;;;;;;78.07;34.23;;;;;;;;;;724760;190;631713;-66
2021/12/08 05:24:32;;;;;;;80.87;35.97;;;;;;;;;;735047;189;628647;-67
2021/12/08 05:26:56;;;;;;;93.90;40.80;;;;;;;;;;725925;189;633697;-67
2021/12/08 05:29:22;;;;;;;114.50;41.80;;;;;;;;;;717551;189;919408;-66
2021/12/08 05:31:48;;;;;;;82.80;32.10;;;;;;;;;;726955;190;918136;-66
2021/12/08 05:34:13;;;;;;;76.43;34.33;;;;;;;;;;720193;190;919551;-66
2021/12/08 05:36:39;;;;;;;109.05;47.10;;;;;;;;;;724718;189;918930;-66
2021/12/08 05:39:05;;;;;;;91.60;39.57;;;;;;;;;;728182;189;919614;-66
2021/12/08 05:41:31;;;;;;;77.67;35.50;;;;;;;;;;720842;192;919771;-66
2021/12/08 05:43:57;;;;;;;75.23;32.63;;;;;;;;;;734055;189;918728;-66
2021/12/08 05:46:23;;;;;;;92.43;37.60;;;;;;;;;;728708;189;918847;-66
2021/12/08 05:48:50;;;;;;;75.27;34.47;;;;;;;;;;728260;189;917410;-67
2021/12/08 05:51:16;;;;;;;69.70;33.23;;;;;;;;;;734473;189;919126;-67
2021/12/08 05:53:42;;;;;;;81.30;34.42;;;;;;;;;;720283;189;921469;-66
2021/12/08 05:56:09;;;;;;;89.07;38.37;;;;;;;;;;742396;189;614485;-66
2021/12/08 05:58:35;;;;;;;108.13;45.87;;;;;;;;;;733380;189;746447;-66
2021/12/08 06:01:05;;;;;;;79.37;35.60;;;;;;;;;;727572;189;641129;-67
2021/12/08 06:03:31;;;;;;;107.43;44.00;;;;;;;;;;732762;189;918883;-66
2021/12/08 06:05:57;;;;;;;100.87;44.93;;;;;;;;;;735287;189;922429;-66
2021/12/08 06:08:23;;;;;;;94.57;40.47;;;;;;;;;;722861;189;918625;-66
2021/12/08 06:10:49;;;;;;;90.83;36.80;;;;;;;;;;729112;189;920139;-67
2021/12/08 06:13:15;;;;;;;112.40;49.00;;;;;;;;;;727984;189;918545;-66
2021/12/08 06:15:40;;;;;;;94.27;39.60;;;;;;;;;;717984;193;919012;-67
2021/12/08 06:18:06;;;;;;;86.07;39.17;;;;;;;;;;724737;190;919778;-68
2021/12/08 06:20:32;;;;;;;98.27;43.20;;;;;;;;;;724192;189;948957;-66
2021/12/08 06:22:58;;;;;;;85.00;33.57;;;;;;;;;;725039;189;918305;-66
2021/12/08 06:25:24;;;;;;;80.57;34.37;;;;;;;;;;718583;191;919340;-66
2021/12/08 06:27:50;;;;;;;91.30;38.97;;;;;;;;;;721303;190;920885;-66
2021/12/08 06:30:15;;;;;;;94.30;40.80;;;;;;;;;;738697;189;941888;-64
2021/12/08 06:32:41;;;;;;;85.03;36.80;;;;;;;;;;728930;188;936401;-66
2021/12/08 06:35:08;;;;;;;93.63;40.20;;;;;;;;;;718281;189;965054;-65
2021/12/08 06:37:33;;;;;;;105.10;46.23;;;;;;;;;;722885;189;919068;-66
2021/12/08 06:39:59;;;;;;;89.37;38.90;;;;;;;;;;727179;189;921257;-66
2021/12/08 06:42:25;;;;;;;86.60;37.20;;;;;;;;;;724090;189;919816;-66
2021/12/08 06:44:51;;;;;;;85.17;38.00;;;;;;;;;;729140;189;919269;-66
2021/12/08 06:47:17;;;;;;;96.43;33.90;;;;;;;;;;728128;189;919521;-66
2021/12/08 06:49:45;;;;;;;80.40;38.00;;;;;;;;;;720352;189;919580;-66
2021/12/08 06:52:09;;;;;;;81.60;34.27;;;;;;;;;;719327;192;918403;-65
2021/12/08 06:54:34;;;;;;;79.20;36.77;;;;;;;;;;733131;189;1022117;-66
2021/12/08 06:57:00;;;;;;;75.83;35.33;;;;;;;;;;734616;189;918559;-66
2021/12/08 06:59:26;;;;;;;79.90;37.10;;;;;;;;;;720704;190;919387;-66
2021/12/08 07:02:04;;;;;;;76.33;36.70;;;;;;;;;;736720;189;919187;-66
2021/12/08 07:04:33;;;;;;;76.93;35.47;;;;;;;;;;732149;189;938793;-66
2021/12/08 07:07:00;;;;;;;70.70;34.57;;;;;;;;;;719855;189;919348;-66
2021/12/08 07:09:25;;;;;;;81.20;39.00;;;;;;;;;;721609;189;918588;-67
2021/12/08 07:11:51;;;;;;;76.23;32.90;;;;;;;;;;725990;189;919512;-67
2021/12/08 07:14:17;;;;;;;77.50;35.00;;;;;;;;;;725222;189;919293;-67
2021/12/08 07:16:43;;;;;;;76.40;33.43;;;;;;;;;;720316;189;918710;-66
2021/12/08 07:19:33;;;;;;;82.20;37.63;;;;;;;;;;729701;189;919396;-66
2021/12/08 07:21:53;;;;;;;64.17;32.20;;;;;;;;;;729069;189;918141;-67
2021/12/08 07:24:18;;;;;;;87.67;40.00;;;;;;;;;;728033;189;911280;-66
2021/12/08 07:26:44;;;;;;;84.05;38.90;;;;;;;;;;722751;189;918271;-66
2021/12/08 07:29:10;;;;;;;74.37;35.87;;;;;;;;;;723987;189;919953;-66
2021/12/08 07:31:36;;;;;;;74.33;36.83;;;;;;;;;;734865;189;918424;-66
2021/12/08 07:34:05;;;;;;;99.50;41.67;;;;;;;;;;732180;189;918519;-66
2021/12/08 07:36:28;;;;;;;73.60;36.23;;;;;;;;;;726914;189;919493;-66
2021/12/08 07:38:53;;;;;;;95.10;38.90;;;;;;;;;;737818;189;918804;-66
2021/12/08 07:41:20;;;;;;;86.10;39.80;;;;;;;;;;716696;189;1527444;-66
2021/12/08 07:43:45;;;;;;;87.97;39.90;;;;;;;;;;719593;189;920628;-66
2021/12/08 07:46:11;;;;;;;84.37;37.08;;;;;;;;;;723984;191;917521;-66
2021/12/08 07:48:37;;;;;;;83.73;36.80;;;;;;;;;;728290;190;919580;-65
2021/12/08 07:51:04;;;;;;;79.43;40.13;;;;;;;;;;725631;189;944982;-66
2021/12/08 07:53:31;;;;;;;74.50;35.60;;;;;;;;;;734228;189;922158;-65
2021/12/08 07:56:00;;;;;;;88.10;39.17;;;;;;;;;;728748;189;919591;-65
2021/12/08 07:58:21;;;;;;;78.47;36.63;;;;;;;;;;728262;189;1021310;-65
2021/12/08 08:00:47;;;;;;;106.57;43.43;;;;;;;;;;727446;190;919962;-66
2021/12/08 08:03:13;;;;;;;73.33;37.20;;;;;;;;;;730782;189;920423;-65
2021/12/08 08:05:39;;;;;;;113.37;47.67;;;;;;;;;;724663;189;916850;-66
2021/12/08 08:08:05;;;;;;;105.97;45.50;;;;;;;;;;724166;190;919497;-66
2021/12/08 08:10:31;;;;;;;85.70;39.90;;;;;;;;;;728123;190;918025;-66
2021/12/08 08:13:00;;;;;;;101.37;44.83;;;;;;;;;;729001;189;919012;-67
2021/12/08 08:15:22;;;;;;;104.03;46.07;;;;;;;;;;706444;193;920098;-65
2021/12/08 08:17:50;;;;;;;79.47;37.20;;;;;;;;;;702716;197;919110;-64
2021/12/08 08:20:15;;;;;;;89.87;41.03;;;;;;;;;;704841;197;919895;-64
2021/12/08 08:22:41;;;;;;;76.83;35.80;;;;;;;;;;699448;197;919814;-64
2021/12/08 08:25:07;;;;;;;158.13;56.33;;;;;;;;;;720796;193;920117;-64
2021/12/08 08:27:33;;;;;;;88.47;35.90;;;;;;;;;;730945;189;919570;-64
2021/12/08 08:29:59;;;;;;;98.47;45.50;;;;;;;;;;723569;189;919977;-63
2021/12/08 08:32:28;;;;;;;75.87;35.70;;;;;;;;;;722109;193;919585;-63
2021/12/08 08:34:51;;;;;;;105.37;49.37;;;;;;;;;;723132;189;919715;-63
2021/12/08 08:37:17;;;;;;;106.00;51.83;;;;;;;;;;730703;189;920053;-63
2021/12/08 08:39:44;;;;;;;85.63;41.00;;;;;;;;;;721967;189;920339;-63
2021/12/08 08:42:10;;;;;;;98.47;44.17;;;;;;;;;;726111;190;919649;-64
2021/12/08 08:44:35;;;;;;;94.37;41.93;;;;;;;;;;731630;189;919486;-64
2021/12/08 08:47:05;;;;;;;88.27;42.37;;;;;;;;;;728536;189;1624710;-64
2021/12/08 08:49:27;;;;;;;83.18;34.85;;;;;;;;;;724311;189;919139;-64
2021/12/08 08:51:59;;;;;;;93.03;41.73;;;;;;;;;;731095;190;922260;-64
2021/12/08 08:54:20;;;;;;;81.03;38.77;;;;;;;;;;722766;189;1048901;-65
2021/12/08 08:56:46;;;;;;;74.83;33.60;;;;;;;;;;722049;189;920137;-65
2021/12/08 08:59:13;;;;;;;85.73;37.83;;;;;;;;;;719617;189;919923;-65
2021/12/08 09:01:39;;;;;;;80.53;33.40;;;;;;;;;;721915;190;919031;-66
2021/12/08 09:04:09;;;;;;;114.93;45.03;;;;;;;;;;724973;189;919264;-65
2021/12/08 09:06:35;;;;;;;92.33;41.60;;;;;;;;;;721345;189;919536;-67
2021/12/08 09:09:02;;;;;;;109.23;45.60;;;;;;;;;;727781;189;925053;-66
2021/12/08 09:11:28;;;;;;;86.83;37.43;;;;;;;;;;730302;189;919532;-66
2021/12/08 09:13:54;;;;;;;101.80;42.80;;;;;;;;;;722357;189;919577;-66
2021/12/08 09:16:21;;;;;;;107.80;49.80;;;;;;;;;;718314;189;919204;-66
2021/12/08 09:18:51;;;;;;;97.83;44.27;;;;;;;;;;734039;189;914854;-67
2021/12/08 09:21:16;;;;;;;92.20;44.27;;;;;;;;;;733012;189;919600;-67
2021/12/08 09:23:40;;;;;;;106.03;42.67;;;;;;;;;;718988;189;919142;-68
2021/12/08 09:26:06;;;;;;;72.93;30.73;;;;;;;;;;725314;189;918265;-69
2021/12/08 09:28:33;;;;;;;127.07;52.00;;;;;;;;;;725680;189;917464;-70
2021/12/08 09:31:03;;;;;;;114.20;49.17;;;;;;;;;;730834;186;918824;-70
2021/12/08 09:33:27;;;;;;;108.37;43.73;;;;;;;;;;728389;189;918737;-70
2021/12/08 09:35:55;;;;;;;99.00;42.40;;;;;;;;;;740349;189;918534;-71
2021/12/08 09:38:21;;;;;;;98.97;44.53;;;;;;;;;;724372;189;918516;-72
2021/12/08 09:40:48;;;;;;;98.50;45.43;;;;;;;;;;731454;189;918987;-72
2021/12/08 09:43:13;;;;;;;111.77;43.40;;;;;;;;;;727059;189;919161;-72
2021/12/08 09:45:39;;;;;;;119.70;48.17;;;;;;;;;;731998;189;923469;-72
2021/12/08 09:48:05;;;;;;;126.23;49.60;;;;;;;;;;725770;190;931175;-72
2021/12/08 09:50:31;;;;;;;107.40;41.80;;;;;;;;;;734650;189;918663;-72
2021/12/08 09:52:57;;;;;;;136.30;54.53;;;;;;;;;;728305;189;919587;-72
2021/12/08 09:55:22;;;;;;;50.70;21.07;;;;;;;;;;729210;189;920648;-71
2021/12/08 09:57:48;;;;;;;156.33;57.13;;;;;;;;;;730470;190;919741;-70
2021/12/08 10:00:16;;;;;;;123.37;48.00;;;;;;;;;;737873;189;919090;-71
2021/12/08 10:02:42;;;;;;;123.77;47.83;;;;;;;;;;727845;187;919299;-69
2021/12/08 10:05:09;;;;;;;100.03;42.43;;;;;;;;;;724536;189;926887;-71
2021/12/08 10:07:34;;;;;;;116.10;49.90;;;;;;;;;;730967;189;919209;-70
2021/12/08 10:10:00;;;;;;;98.13;41.53;;;;;;;;;;723183;189;919121;-70
2021/12/08 10:12:26;;;;;;;107.13;45.40;;;;;;;;;;725836;189;920247;-70
2021/12/08 10:14:52;;;;;;;126.83;48.50;;;;;;;;;;730381;189;919369;-70
2021/12/08 10:17:18;;;;;;;106.50;43.22;;;;;;;;;;728524;190;919136;-70
2021/12/08 10:19:44;;;;;;;84.73;39.80;;;;;;;;;;727199;190;918608;-70
2021/12/08 10:22:15;;;;;;;90.00;42.93;;;;;;;;;;723114;189;920638;-69
2021/12/08 10:24:41;;;;;;;92.40;45.23;;;;;;;;;;727870;189;918631;-70
2021/12/08 10:27:07;;;;;;;105.70;43.83;;;;;;;;;;726992;189;918778;-69
2021/12/08 10:29:33;;;;;;;77.63;38.17;;;;;;;;;;720893;189;919197;-69
2021/12/08 10:32:00;;;;;;;80.97;35.20;;;;;;;;;;733029;189;918364;-69
2021/12/08 10:34:29;;;;;;;76.87;32.97;;;;;;;;;;717955;190;919041;-69
2021/12/08 10:36:50;;;;;;;85.03;36.78;;;;;;;;;;721143;191;919720;-69
2021/12/08 10:39:17;;;;;;;85.23;36.67;;;;;;;;;;730864;189;916759;-69
2021/12/08 10:41:43;;;;;;;75.57;32.70;;;;;;;;;;724411;189;919565;-67
2021/12/08 10:44:09;;;;;;;123.33;49.73;;;;;;;;;;727074;189;918679;-68
2021/12/08 10:46:36;;;;;;;79.53;38.70;;;;;;;;;;724478;189;924150;-68
2021/12/08 10:49:12;;;;;;;69.63;31.00;;;;;;;;;;735876;189;917757;-67
2021/12/08 10:56:35;;;;;;;71.43;34.00;;;;;;;;;;724897;187;924194;-67
2021/12/08 10:59:00;;;;;;;79.10;33.87;;;;;;;;;;737961;189;919101;-67
2021/12/08 11:01:26;;;;;;;54.90;24.70;;;;;;;;;;728431;190;918188;-67
2021/12/08 11:03:58;;;;;;;75.62;33.03;;;;;;;;;;729626;189;919470;-67
2021/12/08 11:06:24;;;;;;;74.72;35.42;;;;;;;;;;731782;186;918818;-67
2021/12/08 11:08:51;;;;;;;70.37;29.80;;;;;;;;;;732192;190;918931;-67
2021/12/08 11:11:20;;;;;;;75.73;32.13;;;;;;;;;;735689;189;918265;-67
2021/12/08 11:13:41;;;;;;;50.20;28.55;;;;;;;;;;721293;189;919045;-68
2021/12/08 11:16:08;;;;;;;66.00;31.27;;;;;;;;;;729379;190;1021433;-67
2021/12/08 11:18:38;;;;;;;70.90;28.77;;;;;;;;;;723533;189;919250;-68
2021/12/08 11:21:00;;;;;;;72.83;33.83;;;;;;;;;;719561;190;921191;-67
2021/12/08 11:23:40;;;;;;;69.00;34.40;;;;;;;;;;718910;192;919316;-70
2021/12/08 11:25:54;;;;;;;74.73;31.60;;;;;;;;;;730243;189;919015;-68
2021/12/08 11:28:20;;;;;;;65.65;29.70;;;;;;;;;;717191;193;919104;-68
2021/12/08 11:30:46;;;;;;;71.17;31.73;;;;;;;;;;706094;197;918248;-68
2021/12/08 11:33:16;;;;;;;71.77;35.07;;;;;;;;;;709535;197;920863;-67
2021/12/08 11:35:39;;;;;;;67.07;30.00;;;;;;;;;;704165;197;918781;-68
2021/12/08 11:38:05;;;;;;;71.73;32.17;;;;;;;;;;722468;189;918577;-68
2021/12/08 11:40:34;;;;;;;78.40;34.07;;;;;;;;;;733388;189;917646;-67
2021/12/08 11:43:00;;;;;;;54.67;26.87;;;;;;;;;;730147;189;1017554;-68
2021/12/08 11:45:26;;;;;;;72.83;34.40;;;;;;;;;;729510;189;919220;-69
2021/12/08 11:47:52;;;;;;;65.60;29.00;;;;;;;;;;721276;189;919104;-68
2021/12/08 11:50:21;;;;;;;75.67;31.90;;;;;;;;;;723670;190;919679;-68
2021/12/08 11:52:43;;;;;;;70.67;31.03;;;;;;;;;;729135;189;919760;-68
2021/12/08 11:55:09;;;;;;;76.27;32.10;;;;;;;;;;730207;189;919816;-69
2021/12/08 11:57:37;;;;;;;70.77;31.23;;;;;;;;;;731564;189;919365;-68
2021/12/08 12:00:14;;;;;;;86.00;37.53;;;;;;;;;;728663;189;919177;-69
2021/12/08 12:02:38;;;;;;;77.03;39.53;;;;;;;;;;717695;189;919564;-69
2021/12/08 12:05:04;;;;;;;74.43;36.95;;;;;;;;;;734808;189;919286;-69
2021/12/08 12:07:30;;;;;;;65.32;32.10;;;;;;;;;;734437;189;919490;-69
2021/12/08 12:09:56;;;;;;;68.80;35.73;;;;;;;;;;729708;189;918861;-69
2021/12/08 12:12:22;;;;;;;78.40;35.30;;;;;;;;;;732006;189;919496;-68
2021/12/08 12:14:48;;;;;;;82.60;37.10;;;;;;;;;;729943;189;918534;-67
2021/12/08 12:17:13;;;;;;;64.13;27.80;;;;;;;;;;731221;189;918669;-68
2021/12/08 12:19:40;;;;;;;91.77;37.97;;;;;;;;;;725904;189;919167;-69
2021/12/08 12:22:12;;;;;;;64.83;30.93;;;;;;;;;;727204;190;919207;-69
2021/12/08 12:24:38;;;;;;;85.30;36.53;;;;;;;;;;733358;189;919058;-68
2021/12/08 12:27:20;;;;;;;85.47;39.33;;;;;;;;;;728671;189;922090;-69
2021/12/08 12:29:52;;;;;;;73.93;35.80;;;;;;;;;;725533;189;918041;-69
2021/12/08 12:32:21;;;;;;;87.30;39.90;;;;;;;;;;722448;189;917740;-69
2021/12/08 12:34:52;;;;;;;86.07;37.75;;;;;;;;;;724602;189;922051;-69
2021/12/08 12:37:28;;;;;;;92.20;37.13;;;;;;;;;;724714;189;920642;-69
2021/12/08 12:39:54;;;;;;;74.77;37.07;;;;;;;;;;738312;189;919538;-69
2021/12/08 12:42:20;;;;;;;97.73;44.40;;;;;;;;;;728561;189;919585;-69
2021/12/08 12:44:46;;;;;;;72.30;31.97;;;;;;;;;;724402;190;1022099;-69
2021/12/08 12:47:15;;;;;;;99.20;46.20;;;;;;;;;;727889;186;920077;-68
2021/12/08 12:49:47;;;;;;;110.97;46.40;;;;;;;;;;723958;189;921098;-69
2021/12/08 12:52:12;;;;;;;103.93;37.83;;;;;;;;;;724838;190;918957;-68
2021/12/08 12:54:39;;;;;;;98.37;43.20;;;;;;;;;;724694;189;918976;-69
2021/12/08 12:57:06;;;;;;;131.20;55.80;;;;;;;;;;730944;189;918637;-69
2021/12/08 12:59:36;;;;;;;120.37;49.67;;;;;;;;;;724499;189;918984;-68
2021/12/08 13:02:04;;;;;;;120.97;51.03;;;;;;;;;;726787;189;918834;-69
2021/12/08 13:04:32;;;;;;;96.90;40.17;;;;;;;;;;726183;189;918442;-68
2021/12/08 13:06:57;;;;;;;116.10;49.15;;;;;;;;;;729668;189;919306;-68
2021/12/08 13:09:29;;;;;;;133.27;49.33;;;;;;;;;;731901;189;629740;-69
2021/12/08 13:11:59;;;;;;;99.53;41.93;;;;;;;;;;729099;189;919392;-69
2021/12/08 13:14:22;;;;;;;102.37;41.33;;;;;;;;;;722443;189;918561;-68
2021/12/08 13:16:48;;;;;;;111.43;47.37;;;;;;;;;;728936;189;919482;-68
2021/12/08 13:19:15;;;;;;;126.87;53.43;;;;;;;;;;728497;189;919864;-68
2021/12/08 13:21:43;;;;;;;120.03;51.70;;;;;;;;;;724690;189;919795;-67
2021/12/08 13:24:15;;;;;;;176.13;75.50;;;;;;;;;;732432;189;921337;-68
2021/12/08 13:26:43;;;;;;;125.37;51.93;;;;;;;;;;731483;189;945237;-68
2021/12/08 13:29:16;;;;;;;117.97;53.70;;;;;;;;;;725231;189;918418;-67
2021/12/08 13:31:38;;;;;;;96.30;42.87;;;;;;;;;;728574;189;640685;-67
2021/12/08 13:34:04;;;;;;;110.13;45.77;;;;;;;;;;732708;189;625292;-68
2021/12/08 13:36:32;;;;;;;109.97;50.83;;;;;;;;;;727914;189;625927;-68
2021/12/08 13:39:12;;;;;;;112.37;45.60;;;;;;;;;;728737;190;622260;-68
2021/12/08 13:41:38;;;;;;;98.60;47.90;;;;;;;;;;722323;189;916509;-68
2021/12/08 13:44:10;;;;;;;127.33;54.47;;;;;;;;;;724859;189;918699;-68
2021/12/08 13:46:38;;;;;;;99.93;46.43;;;;;;;;;;731725;189;918152;-68
2021/12/08 13:49:09;;;;;;;116.73;54.23;;;;;;;;;;714090;193;914529;-68
2021/12/08 13:51:37;;;;;;;143.07;56.20;;;;;;;;;;728894;187;919635;-68
2021/12/08 13:54:09;;;;;;;115.45;47.88;;;;;;;;;;723558;190;918703;-67
2021/12/08 13:56:42;;;;;;;110.77;49.47;;;;;;;;;;727426;189;624086;-68
2021/12/08 13:59:07;;;;;;;137.47;55.57;;;;;;;;;;741748;189;629686;-69
2021/12/08 14:01:36;;;;;;;121.27;60.13;;;;;;;;;;717651;193;918151;-69
2021/12/08 14:04:01;;;;;;;104.70;48.73;;;;;;;;;;729848;189;918955;-69
2021/12/08 14:06:27;;;;;;;108.73;45.43;;;;;;;;;;733583;189;918496;-69
2021/12/08 14:08:53;;;;;;;124.53;45.07;;;;;;;;;;728447;190;919460;-70
2021/12/08 14:11:19;;;;;;;130.90;54.23;;;;;;;;;;725533;189;919713;-71
2021/12/08 14:13:45;;;;;;;171.53;75.50;;;;;;;;;;730260;189;908817;-66
2021/12/08 14:16:11;;;;;;;153.67;63.93;;;;;;;;;;722530;190;919268;-67
2021/12/08 14:18:37;;;;;;;230.23;94.27;;;;;;;;;;723858;189;1123823;-66
2021/12/08 14:21:05;;;;;;;139.67;54.43;;;;;;;;;;725084;189;918915;-66
2021/12/08 14:23:30;;;;;;;187.23;77.23;;;;;;;;;;732854;189;919546;-67
2021/12/08 14:25:57;;;;;;;165.45;81.22;;;;;;;;;;727123;189;918340;-67
2021/12/08 14:28:27;;;;;;;217.07;99.10;;;;;;;;;;730908;189;918136;-67
2021/12/08 14:30:53;;;;;;;182.65;78.80;;;;;;;;;;731013;189;918363;-67
2021/12/08 14:33:18;;;;;;;155.00;74.23;;;;;;;;;;729479;189;920145;-67
2021/12/08 14:35:44;;;;;;;126.97;57.00;;;;;;;;;;730103;189;919859;-67
2021/12/08 14:38:10;;;;;;;134.90;55.07;;;;;;;;;;726926;189;919110;-66